メインページ
METAR-TAF:

METAR-TAF

空港 :

ブルネイ, ブルネイ

ブルネイ国際空港

緯度: 04-56N, 経度: 114-56E, 海抜: 22m

現時点の気象観測

当レポートは31分前の16:00(UTC)に作成
南西の風 2kt
気温 27°C
湿度 89%
気圧 1011 hPa
視程10km以上
高度1500ftの雲はほとんどない
高度14000ftの千切れ雲あり

METAR: WBSB 221600Z 22002KT 9999 FEW015 BKN140 27/25 Q1011 NOSIG

時間: 00:31 (16:31 UTC)

予報

当レポートは5時間31分前の11:00(UTC)に作成
予報は22日の 12時(UTC)から 23日の 18時(UTC)まで有効
南/南西の風 3kt
視程10km以上
高度1500ftの雲はほとんどない
高度1600ftの雲はほとんどない, 積乱雲.
22日の 14時(UTC)から 22日の 16時(UTC)まで一時的に
視程: 7000m
にわか雨, 激しい雷雨, 雨
23日の 03時(UTC)から 23日の 05時(UTC)まで徐々に
西の風 10kt
高度1600ftの雲は散在している
高度1700ftの雲はほとんどない, 積乱雲.

TAF: WBSB 221100Z 2212/2318 20003KT 9999 FEW015 FEW016CB TEMPO 2214/2216 7000 SHRA TSRA BECMG 2303/2305 26010KT SCT016 FEW017CB

4,000以上の空港の気象観測と天気予報(METAR報とTAF報)

利用可能な観測所は地図上に黄色い丸と赤い丸で示す。

丸の上にカーソルを重ねると観測所名を参照できる。

次にクリックすると気象観測と天気予報を参照できる。

マップの切り替え:黒色「×」印の緑ボタンをクリックして拡大、「-」印の緑ボタンをクリックして縮小、緑色の三角印をクリックして隣りの地図に切り替え


METAR-TAF: